logo
Games tagged Tactical RPG
# Game Release date
Price
Score rank
(Userscore / Metascore)
Owners
Players
Playtime (Median)
Developer(s)
Publisher(s)
1 Divinity: Original Sin 2 - Definitive Edition Sep 14, 2017 $44.99N/A (N/A/93%)2,000,000 .. 5,000,0004.2%20:33 (31:38)Larian StudiosLarian Studios
2 Wildermyth Jun 15, 2021 $24.99N/A (N/A/88%)200,000 .. 500,0000%00:00 (00:00)Worldwalker Games LLCWorldwalker Games LLC, WhisperGames
3 RimWorld Oct 17, 2018 $34.99N/A (N/A/87%)2,000,000 .. 5,000,0008.53%05:52 (08:18)Ludeon StudiosLudeon Studios
4 Mass Effect Legendary Edition May 14, 2021 $59.99N/A (N/A/86%)500,000 .. 1,000,0006.25%00:55 (00:35)BioWareElectronic Arts
5 Planescape: Torment: Enhanced Edition Apr 11, 2017 $19.99N/A (N/A/85%)200,000 .. 500,0000%00:00 (00:00)BeamdogBeamdog
6 The Legend of Heroes: Trails in the Sky Jul 29, 2014 $9.99N/A (N/A/85%)200,000 .. 500,0000%00:00 (00:00)Nihon FalcomXSEED Games, Marvelous USA, Inc.
7 Silent Storm Gold Edition Sep 9, 2004 $9.99N/A (N/A/83%)100,000 .. 200,0000%00:00 (00:00)NivalTHQ Nordic
8 Trials of Fire Apr 9, 2021 $19.99N/A (N/A/83%)50,000 .. 100,0000%00:00 (00:00)Whatboy GamesWhatboy Games
9 Valkyria Chronicles 4 Complete Edition Sep 25, 2018 $14.99N/A (N/A/83%)200,000 .. 500,0000%00:00 (00:00)SEGASEGA
10 The Banner Saga 2 Apr 19, 2016 $24.99N/A (N/A/82%)200,000 .. 500,0000%00:00 (00:00)StoicVersus Evil
11 Dragon Age II Mar 8, 2011 $19.99N/A (N/A/82%)200,000 .. 500,0000%00:00 (00:00)BioWareElectronic Arts
12 King's Bounty: Armored Princess Nov 19, 2009 $9.99N/A (N/A/82%)500,000 .. 1,000,0000%00:00 (00:00)Katauri Interactive1C Entertainment
13 Fallout Tactics: Brotherhood of Steel Mar 1, 2001 $9.99N/A (N/A/82%)1,000,000 .. 2,000,0000%00:00 (00:00)14° EastBethesda Softworks
14 Fell Seal: Arbiter's Mark Apr 30, 2019 $29.99N/A (N/A/82%)200,000 .. 500,0000%00:00 (00:00)6 Eyes Studio1C Entertainment
15 Wargroove Feb 1, 2019 $19.99N/A (N/A/82%)500,000 .. 1,000,0000%00:00 (00:00)ChucklefishChucklefish
16 The Banner Saga 3 Jul 26, 2018 $24.99N/A (N/A/82%)100,000 .. 200,0000%00:00 (00:00)StoicVersus Evil
17 Disgaea 2 PC Jan 30, 2017 $19.99N/A (N/A/81%)100,000 .. 200,0000%00:00 (00:00)Nippon Ichi Software, Inc.NIS America, Inc.
18 The Age of Decadence Oct 14, 2015 $12.99N/A (N/A/81%)100,000 .. 200,0000%00:00 (00:00)Iron Tower StudioIron Tower Studio
19 Battle Brothers Mar 24, 2017 $29.99N/A (N/A/80%)500,000 .. 1,000,0000%00:00 (00:00)Overhype StudiosOverhype Studios
20 Card Hunter Jul 13, 2015 FreeN/A (N/A/80%)1,000,000 .. 2,000,0000%00:00 (00:00)The Knights of UnityThe Knights of Unity
21 The Banner Saga Jan 14, 2014 $7.99N/A (N/A/80%)500,000 .. 1,000,0000%00:00 (00:00)StoicVersus Evil
22 Fallen Enchantress: Legendary Heroes May 22, 2013 $24.99N/A (N/A/80%)200,000 .. 500,0000%00:00 (00:00)Stardock EntertainmentStardock Entertainment
23 Dark Deity Jun 15, 2021 $24.99N/A (N/A/80%)100,000 .. 200,0000%00:00 (00:00)Sword & Axe LLCFreedom Games
24 Wintermoor Tactics Club May 5, 2020 $14.99N/A (N/A/80%)0 .. 20,0000%00:00 (00:00)EVC GamesVersus Evil
25 King's Bounty: The Legend Sep 23, 2008 $6.99N/A (N/A/79%)500,000 .. 1,000,0000%00:00 (00:00)1C Entertainment1C Entertainment
26 King's Bounty: Crossworlds Sep 17, 2010 $14.99N/A (N/A/78%)200,000 .. 500,0000%00:00 (00:00)Katauri Interactive1C Entertainment
27 Star Renegades Sep 8, 2020 $24.99N/A (N/A/77%)100,000 .. 200,00012.5%01:58 (00:39)Massive Damage, Inc.Raw Fury
28 Stirring Abyss Oct 29, 2020 FreeN/A (N/A/76%)0 .. 20,0000%00:00 (00:00)Sleepy Sentry, K-ProjectSlitherine Ltd.
29 Vaporum Sep 28, 2017 $19.99N/A (N/A/75%)50,000 .. 100,00033.33%00:56 (00:18)Fatbot Games, s. r. o.Fatbot Games, s. r. o.
30 Armello Sep 1, 2015 $19.99N/A (N/A/75%)500,000 .. 1,000,0000%00:00 (00:00)League of GeeksLeague of Geeks
31 Chroma Squad Apr 30, 2015 $14.99N/A (N/A/75%)200,000 .. 500,0000%00:00 (00:00)Behold StudiosBehold Studios
32 Expeditions: Viking Apr 27, 2017 $29.99N/A (N/A/74%)200,000 .. 500,0000%00:00 (00:00)Logic ArtistsTHQ Nordic
33 Disgaea PC Feb 24, 2016 $19.99N/A (N/A/74%)200,000 .. 500,0000%00:00 (00:00)Nippon Ichi Software, Inc.NIS America, Inc.
34 Mordheim: City of the Damned Nov 19, 2015 $19.99N/A (N/A/74%)200,000 .. 500,0003.85%06:46 (02:15)Rogue FactorRogue Factor
35 Blackguards 2 Jan 20, 2015 $9.99N/A (N/A/74%)100,000 .. 200,0000%00:00 (00:00)Daedalic EntertainmentDaedalic Entertainment
36 Eador. Masters of the Broken World Apr 19, 2013 $19.99N/A (N/A/74%)500,000 .. 1,000,0000%00:00 (00:00)Snowbird GamesSnowbird Games
37 King's Bounty: Warriors of the North Oct 25, 2012 $1.99N/A (N/A/74%)200,000 .. 500,0000%00:00 (00:00)1C-SoftClub1C Entertainment
38 Phoenix Point: Year One Edition Dec 3, 2020 $39.99N/A (N/A/74%)200,000 .. 500,0000%00:00 (00:00)Snapshot Games Inc.Snapshot Games Inc.
39 Fort Triumph Apr 16, 2020 $19.99N/A (N/A/74%)50,000 .. 100,0000%00:00 (00:00)CookieByte EntertainmentAll in! Games
40 Halcyon 6: Starbase Commander (LIGHTSPEED EDITION) Aug 10, 2017 $14.99N/A (N/A/73%)100,000 .. 200,0000%00:00 (00:00)Massive Damage, Inc.Massive Damage, Inc.
41 Children of Zodiarcs Jul 18, 2017 $17.99N/A (N/A/73%)20,000 .. 50,0000%00:00 (00:00)Cardboard UtopiaSquare Enix
42 Starpoint Gemini Warlords May 23, 2017 $34.99N/A (N/A/73%)200,000 .. 500,0000%00:00 (00:00)Little Green Men GamesIceberg Interactive
43 Regalia: Of Men and Monarchs May 18, 2017 $19.99N/A (N/A/73%)20,000 .. 50,0000%00:00 (00:00)Pixelated MilkPixelated Milk
44 MASSIVE CHALICE Jun 1, 2015 $19.99N/A (N/A/73%)50,000 .. 100,0000%00:00 (00:00)Double Fine ProductionsDouble Fine Productions
45 Earth 2160 Apr 1, 2006 $4.99N/A (N/A/73%)500,000 .. 1,000,0000%00:00 (00:00)Reality Pump StudiosTopware Interactive, ACE
46 Popup Dungeon Aug 12, 2020 $24.99N/A (N/A/73%)20,000 .. 50,0000%00:00 (00:00)Triple.B.TitlesHumble Games
47 Nowhere Prophet Jul 19, 2019 $24.99N/A (N/A/73%)20,000 .. 50,0000%00:00 (00:00)Sharkbomb StudiosNo More Robots
48 Aarklash: Legacy Sep 12, 2013 $15.99N/A (N/A/72%)100,000 .. 200,0000%00:00 (00:00)Cyanide StudioNacon
49 Halcyon 6: Starbase Commander Sep 8, 2016 $14.99N/A (N/A/71%)100,000 .. 200,0000%00:00 (00:00)Massive Damage, Inc.Massive Damage, Inc.
50 Overfall May 17, 2016 $4.99N/A (N/A/71%)100,000 .. 200,0000%00:00 (00:00)Pera GamesPera Games
51 Legends of Eisenwald Jul 2, 2015 $9.99N/A (N/A/71%)100,000 .. 200,0009.09%00:29 (00:09)Aterdux EntertainmentAterdux Entertainment
52 Viola: The Heroine's Melody Feb 17, 2021 $14.99N/A (N/A/71%)0 .. 20,0000%00:00 (00:00)Jelle van DoorneJelle van Doorne
53 SD GUNDAM G GENERATION CROSS RAYS Nov 27, 2019 $59.99N/A (N/A/71%)200,000 .. 500,0000%00:00 (00:00)TOM CREATE, 株式会社トムクリエイトBANDAI NAMCO Entertainment, 株式会社バンダイナムコエンターテインメント
54 Starpoint Gemini 2 Sep 26, 2014 $34.99N/A (N/A/70%)500,000 .. 1,000,0000%00:00 (00:00)Little Green Men GamesLittle Green Men Games
55 TINY METAL: FULL METAL RUMBLE Jul 11, 2019 $14.99N/A (N/A/70%)0 .. 20,0000%00:00 (00:00)AREA 35, Inc.AREA 34, Inc.
56 WARTILE Feb 8, 2018 $19.99N/A (N/A/68%)50,000 .. 100,0000%00:00 (00:00)Playwood ProjectDeck13, WhisperGames
57 TINY METAL Dec 21, 2017 $24.99N/A (N/A/68%)0 .. 20,0000%00:00 (00:00)AREA 35, Inc.Sony Music Entertainment (Japan) Inc. / UNTIES
58 Blackguards Jan 22, 2014 $9.99N/A (N/A/68%)500,000 .. 1,000,0000%00:00 (00:00)Daedalic EntertainmentDaedalic Entertainment
59 Vaporum: Lockdown Sep 15, 2020 $17.99N/A (N/A/68%)0 .. 20,0000%00:00 (00:00)Fatbot Games, s. r. o.Fatbot Games, s. r. o.
60 Pathway Apr 11, 2019 $15.99N/A (N/A/68%)200,000 .. 500,0000%00:00 (00:00)RobotalityChucklefish
61 Fallen Legion: Rise to Glory Jan 5, 2018 $29.99N/A (N/A/66%)0 .. 20,0000%00:00 (00:00)YummyYummyTummy, MintsphereYummyYummyTummy
62 Ash of Gods: Redemption Mar 23, 2018 $24.99N/A (N/A/65%)50,000 .. 100,0000%00:00 (00:00)AurumDustAurumDust, WhisperGames
63 Masquerada: Songs and Shadows Sep 30, 2016 $19.99N/A (N/A/64%)50,000 .. 100,0000%00:00 (00:00)Witching Hour StudiosYsbryd Games
64 Has-Been Heroes Mar 28, 2017 $19.99N/A (N/A/63%)20,000 .. 50,0000%00:00 (00:00)FrozenbyteGameTrust Games
65 Jagged Alliance: Crossfire Aug 24, 2012 $14.99N/A (N/A/63%)100,000 .. 200,0000%00:00 (00:00)Coreplay GmbHTHQ Nordic
66 Jagged Alliance - Back in Action Feb 8, 2012 $19.99N/A (N/A/62%)200,000 .. 500,0000%00:00 (00:00)Coreplay GmbH, Bigmoon StudiosTHQ Nordic
67 WARSAW Oct 2, 2019 $23.99N/A (N/A/62%)50,000 .. 100,0004%00:13 (00:04)Pixelated MilkPixelated Milk, gaming company
68 The Dwarves Dec 1, 2016 $39.99N/A (N/A/61%)200,000 .. 500,0000%00:00 (00:00)KING ArtTHQ Nordic, EuroVideo Medien
69 Kingdom Under Fire: The Crusaders Feb 28, 2020 $19.99N/A (N/A/60%)20,000 .. 50,0000%00:00 (00:00)BluesideBlueside, Incredi Soft
70 Jagged Alliance: Rage! Dec 6, 2018 $19.99N/A (N/A/59%)50,000 .. 100,0000%00:00 (00:00)Cliffhanger ProductionsHandyGames
71 Prime World: Defenders Jun 5, 2013 $9.99N/A (N/A/58%)100,000 .. 200,0000%00:00 (00:00)NivalNival
72 Forged of Blood Aug 1, 2019 $29.99N/A (N/A/57%)0 .. 20,0000%00:00 (00:00)Critical ForgeCritical Forge
73 City of the Shroud Aug 9, 2018 N/AN/A (N/A/57%)0 .. 20,0000%00:00 (00:00)Abyssal Arts Ltd.Abyssal Arts Ltd.
74 Tears of Avia Oct 15, 2020 $19.99N/A (N/A/56%)50,000 .. 100,0000%00:00 (00:00)CooCooSqueaky GamesPQube Limited
75 Grimshade Mar 26, 2019 $19.99N/A (N/A/53%)0 .. 20,0000%00:00 (00:00)TALEROCKAsterion Games
76 Confrontation Apr 4, 2012 $9.99N/A (N/A/51%)100,000 .. 200,0000%00:00 (00:00)Cyanide StudioFocus Home Interactive
77 Line Of Defense Tactics - Tactical Advantage Mar 17, 2014 $9.99N/A (N/A/47%)0 .. 20,0000%00:00 (00:00)3000AD3000AD
78 Find & Destroy: Tank Strategy Jun 12, 2018 FreeN/A (N/A)20,000 .. 50,0000%00:00 (00:00)mPower Games StudiomPower Games Studio
79 Tactical Monsters Rumble Arena Jan 31, 2018 FreeN/A (N/A)500,000 .. 1,000,0000%00:00 (00:00)Camex GamesCamex Games
80 Clarent Saga: Tactics Sep 25, 2017 FreeN/A (N/A)0 .. 20,0000%00:00 (00:00)David NguyenDavid Nguyen
81 Warbands: Bushido Sep 15, 2017 FreeN/A (N/A)100,000 .. 200,0000%00:00 (00:00)Red Unit StudiosRed Unit Studios
82 Heroes Tactics May 24, 2017 FreeN/A (N/A)50,000 .. 100,0000%00:00 (00:00)Camex GamesCamex Games
83 Heroes Must Die Jul 15, 2016 FreeN/A (N/A)0 .. 20,0000%00:00 (00:00)Heroic GamesHeroic Games
84 Forge of Gods (RPG) May 6, 2016 N/AN/A (N/A)500,000 .. 1,000,0000%00:00 (00:00)Panoramik IncPanoramik Inc
85 Labyrinth Mar 7, 2016 N/AN/A (N/A)50,000 .. 100,0000%00:00 (00:00)Free Range GamesFree Range Games
86 NAVYFIELD Mar 18, 2000 FreeN/A (N/A)200,000 .. 500,0000%00:00 (00:00)SDEnterNETNaiadgames
87 Quintaesencia Oct 17, 2022 FreeN/A (N/A)20,000 .. 50,0000%00:00 (00:00)AngelusAngelus
88 Paradigm Shift May 31, 2021 FreeN/A (N/A)20,000 .. 50,0000%00:00 (00:00)PixieBixxie, NUU-Pro, telosLunar Boon
89 After Off War May 21, 2021 N/AN/A (N/A)0 .. 20,0000%00:00 (00:00)DAY DAY UP GAMEDAY DAY UP GAME
90 Giants May 7, 2021 FreeN/A (N/A)100,000 .. 200,0000%00:00 (00:00)Singta inc.Singta Inc.
91 Dudes on a Map: Virtual Grid Paper Apr 20, 2021 FreeN/A (N/A)0 .. 20,0000%00:00 (00:00)Big Sky Software LLCBig Sky Software LLC
92 全战天下 Apr 12, 2021 FreeN/A (N/A)20,000 .. 50,0000%00:00 (00:00)全战天下全战天下
93 Magicians' Legacy: Prologue Apr 6, 2021 FreeN/A (N/A)20,000 .. 50,0000%00:00 (00:00)Greenolor StudioGreenolor Studio
94 Heart of Enya Mar 26, 2021 FreeN/A (N/A)20,000 .. 50,0000%00:00 (00:00)Team BapyTeam Bapy
95 Condors Vs Ocelots Mar 19, 2021 FreeN/A (N/A)0 .. 20,0000%00:00 (00:00)Titanomachy StudiosTitanomachy Studios
96 Realm Engine | Virtual Tabletop Mar 5, 2021 FreeN/A (N/A)0 .. 20,0000%00:00 (00:00)Blake JohnsonPixel Ghost
97 Wonhon: Prologue Feb 28, 2021 FreeN/A (N/A)200,000 .. 500,0000%00:00 (00:00)BUSAN SANAI GAMESSuper.com
98 Wartune Reborn Feb 26, 2021 FreeN/A (N/A)50,000 .. 100,0000%00:00 (00:00)7Road7Road
99 Sid Classic Feb 18, 2021 FreeN/A (N/A)20,000 .. 50,0000%00:00 (00:00)Singta inc.Singta inc.
100 修真之路 Feb 6, 2021 FreeN/A (N/A)0 .. 20,0000%00:00 (00:00)游韵游戏网络公司游韵游戏网络公司
101 Warriors: Rise to Glory! Online Multiplayer Open Beta Jan 28, 2021 FreeN/A (N/A)20,000 .. 50,0000%00:00 (00:00)Gavra GamesGavra Games
102 Space Cats Tactics: Prologue Jan 1, 2021 FreeN/A (N/A)20,000 .. 50,0000%00:00 (00:00)Mitzi GamesMitzi Games
103 Slaves of Magic prelude Dec 14, 2020 FreeN/A (N/A)50,000 .. 100,0000%00:00 (00:00)Amethyst DreamersAmethyst Dreamers
104 Grid Fight - Mask of the Goddess - First Boot Dec 7, 2020 N/AN/A (N/A)0 .. 20,0000%00:00 (00:00)Playtra GamesPlaytra Games
105 911 Emergency Manager Nov 20, 2020 N/AN/A (N/A)20,000 .. 50,0000%00:00 (00:00)GoodZeit UGGoodZeit UG
106 Aegis Online Oct 30, 2020 FreeN/A (N/A)0 .. 20,0000%00:00 (00:00)Kale the QuickEaster Egg Productions
107 The Last Spell: Prologue Oct 29, 2020 N/AN/A (N/A)100,000 .. 200,0000%00:00 (00:00)Ishtar GamesThe Arcade Crew, Gamera Game (China)
108 Dungeon & Derision Aug 6, 2020 FreeN/A (N/A)0 .. 20,0000%00:00 (00:00)Alexis AngelyAlexis Angely
109 8-Bit Attack Jul 15, 2020 FreeN/A (N/A)0 .. 20,0000%00:00 (00:00)Startale Games, Petersen GamesStartale Games
110 DF-41 Simulator Jul 7, 2020 FreeN/A (N/A)0 .. 20,0000%00:00 (00:00)Bo ChenBo Chen
111 The falling tower Jun 23, 2020 FreeN/A (N/A)0 .. 20,0000%00:00 (00:00)CarotaaDream Night Studio
112 Hopebringers May 25, 2020 FreeN/A (N/A)0 .. 20,0000%00:00 (00:00)Critical Miss GamesCritical Miss Games
113 Zoria: Age of Shattering Prologue Apr 30, 2020 FreeN/A (N/A)50,000 .. 100,0000%00:00 (00:00)Tiny Trinket GamesTiny Trinket Games
114 INFILTRIA Mar 3, 2020 N/AN/A (N/A)0 .. 20,0000%00:00 (00:00)sectuZNETsectuZ.NET
115 Battlecraft - Tactics Online Feb 10, 2020 FreeN/A (N/A)0 .. 20,0000%00:00 (00:00)Sigil EntertainmentSigil Entertainment
116 ReversiQuest2 Jan 6, 2020 N/AN/A (N/A)0 .. 20,0000%00:00 (00:00)YokogosystemsYokogosystems
117 Game of Thrones Winter is Coming Nov 14, 2019 FreeN/A (N/A)200,000 .. 500,0000%00:00 (00:00)YOUZU (SINGAPORE) PTE. LTD.YOUZU (SINGAPORE) PTE. LTD.
118 Dawn of the Dragons: Ascension Nov 1, 2019 FreeN/A (N/A)20,000 .. 50,0000%00:00 (00:00)5th Planet Games Development ApS5th Planet Games Development ApS
119 Braveland Heroes Sep 16, 2019 FreeN/A (N/A)50,000 .. 100,0000%00:00 (00:00)Tortuga TeamTortuga Team
120 《鬼畜战记:金坷垃传说》 Jul 26, 2019 FreeN/A (N/A)50,000 .. 100,0000%00:00 (00:00)小闲小闲
121 Gythol Granditti: The Crypt of Darkness Jul 19, 2019 FreeN/A (N/A)20,000 .. 50,0000%00:00 (00:00)GZ StormGZ Storm
122 Goblin Squad - Total Division May 10, 2019 N/AN/A (N/A)0 .. 20,0000%00:00 (00:00)Event Horizon Studios34BigThings srl
123 Margonem Feb 20, 2019 FreeN/A (N/A)0 .. 20,0000%00:00 (00:00)GarmoryGarmory
124 Age of Fear: The Free World Jan 18, 2019 FreeN/A (N/A)100,000 .. 200,0000%00:00 (00:00)Leslaw SliwkoAge of Fear
125 Chaordic Dec 17, 2018 FreeN/A (N/A)0 .. 20,0000%00:00 (00:00)Artepi CorporationArtepi Corporation
126 The Chronicles of Quiver Dick Jul 9, 2018 $2.99N/A (N/A)20,000 .. 50,0000%00:00 (00:00)Crankage GamesCrankage Games
127 Dungeon Deathball Jul 6, 2018 $11.99N/A (N/A)20,000 .. 50,0000%00:00 (00:00)Matt GlanvilleMatt Glanville
128 Lost Legend Jul 2, 2018 $2.99N/A (N/A)20,000 .. 50,0000%00:00 (00:00)Unhinged LLCUnhinged LLC
129 Anima: Gate of Memories - The Nameless Chronicles Jun 19, 2018 $5.99N/A (N/A)0 .. 20,0000%00:00 (00:00)Anima ProjectBadLand Publishing
130 Spaceship Commander May 23, 2018 $9.99N/A (N/A)0 .. 20,0000%00:00 (00:00)Sokolov Yaroslav VladimirovichSokolov Yaroslav Vladimirovich
131 Bastard May 14, 2018 $8.99N/A (N/A)50,000 .. 100,0000%00:00 (00:00)Aterdux EntertainmentAterdux Entertainment
132 Demon's Rise - War for the Deep Apr 29, 2018 $6.99N/A (N/A)0 .. 20,0000%00:00 (00:00)Wave Light Games Inc.Wave Light Games Inc.
133 Demon's Rise - Lords of Chaos Apr 24, 2018 $6.99N/A (N/A)20,000 .. 50,0000%00:00 (00:00)Wave Light Games Inc.Wave Light Games Inc.
134 Tactics & Strategy Master:Joan of Arc Mar 28, 2018 $4.99N/A (N/A)20,000 .. 50,0000%00:00 (00:00)Gemini Stars GamesGemini Stars Games
135 Ambition of the Slimes Feb 15, 2018 $4.99N/A (N/A)20,000 .. 50,0000%00:00 (00:00)altairworksFlyhigh Works, CIRCLE Entertainment
136 Necromancer Returns Feb 1, 2018 $9.99N/A (N/A)0 .. 20,0000%00:00 (00:00)Greenolor StudioGreenolor Studio
137 Stream Battlecards Jan 28, 2018 $9.99N/A (N/A)0 .. 20,0000%00:00 (00:00)Pascal DittrichpadSoft
138 Once upon a Dungeon Jan 19, 2018 $4.99N/A (N/A)0 .. 20,0000%00:00 (00:00)Koto GamesKoto Games
139 Army of Tentacles: (Not) A Cthulhu Dating Sim: Black GOAT of the Woods Edition Jan 4, 2018 $10.99N/A (N/A)0 .. 20,0000%00:00 (00:00)Stegalosaurus Game DevelopmentStegalosaurus Game Development
140 Strike Team Hydra Dec 8, 2017 $6.99N/A (N/A)0 .. 20,0000%00:00 (00:00)Wave Light Games Inc.Wave Light Games Inc.
141 Reverse Fantasy Legend Nov 23, 2017 $18.99N/A (N/A)0 .. 20,0000%00:00 (00:00)废材炼金术士废材炼金术士
142 Willy-Nilly Knight Nov 10, 2017 $14.99N/A (N/A)20,000 .. 50,0000%00:00 (00:00)Double Dice GamesDouble Dice Games
143 Lost Dimension Oct 30, 2017 $24.99N/A (N/A)20,000 .. 50,0000%00:00 (00:00)FURYU CorporationGhostlight LTD
144 Bionic Battle Mutants Oct 24, 2017 $4.99N/A (N/A)100,000 .. 200,0000%00:00 (00:00)MonkeyneticsMonkeynetics
145 Warbanners Oct 18, 2017 $19.99N/A (N/A)20,000 .. 50,0000%00:00 (00:00)Crasleen GamesCrasleen Games
146 Beastmancer Oct 5, 2017 $9.99N/A (N/A)0 .. 20,0000%00:00 (00:00)AutarcaAutarca
147 Ancient Frontier Sep 21, 2017 $24.99N/A (N/A)0 .. 20,0000%00:00 (00:00)Fair Weather Studios, LLCFair Weather Studios, LLC
148 Legion Tale Sep 20, 2017 $4.99N/A (N/A)50,000 .. 100,0000%00:00 (00:00)Maulidan GamesMaulidan Games
149 Garden Tale Sep 13, 2017 $9.99N/A (N/A)20,000 .. 50,0000%00:00 (00:00)Bonion GamesPLAYISM
150 Steam Tactics Sep 12, 2017 $4.99N/A (N/A)0 .. 20,0000%00:00 (00:00)Igor RashkuevIgor Rashkuev
151 Age of Fear 3: The Legend Sep 1, 2017 $24.99N/A (N/A)0 .. 20,0000%00:00 (00:00)Leslaw SliwkoAge of Fear
152 Weaves of Fate Aug 3, 2017 $3.99N/A (N/A)20,000 .. 50,0000%00:00 (00:00)Tom KingstonTom Kingston
153 Metal as Phuk Jul 13, 2017 $4.99N/A (N/A)0 .. 20,0000%00:00 (00:00)Crankage GamesCrankage Games
154 Brigand: Oaxaca Jul 11, 2017 $2.99N/A (N/A)1,000,000 .. 2,000,0000%00:00 (00:00)Brian Lancaster, Laughing Coyote SoftwareBrian Lancaster, Laughing Coyote Software
155 Monsters' Den: Godfall Jul 6, 2017 $14.99N/A (N/A)50,000 .. 100,0000%00:00 (00:00)MonstrumMonstrum
156 Swords and Sandals 2 Redux Jun 29, 2017 $8.99N/A (N/A)50,000 .. 100,0000%00:00 (00:00)Whiskeybarrel StudioseGames.com
157 Alvora Tactics Jun 1, 2017 $9.99N/A (N/A)0 .. 20,0000%00:00 (00:00)Rad CodexRad Codex
158 NEXT JUMP: Shmup Tactics Apr 28, 2017 $4.99N/A (N/A)20,000 .. 50,0000%00:00 (00:00)Post Mortem PixelsPost Mortem Pixels
159 Tokyo Twilight Ghost Hunters Daybreak: Special Gigs Mar 17, 2017 $9.99N/A (N/A)20,000 .. 50,0000%00:00 (00:00)Arc System Works, TOYBOX Inc.PQube Limited
160 Wacky Spores: The Chase Feb 10, 2017 $8.99N/A (N/A)0 .. 20,0000%00:00 (00:00)Lorenzo BellincampiLorenzo Bellincampi
161 Hellenica Jan 23, 2017 $6.49N/A (N/A)0 .. 20,0000%00:00 (00:00)The DragonloftThe Dragonloft
162 Magi Mar 21, 2007 $9.99N/A (N/A)0 .. 20,0000%00:00 (00:00)MoaCubeMoaCube
163 Alien Shooter TD Jan 13, 2017 $9.99N/A (N/A)50,000 .. 100,0000%00:00 (00:00)Sigma Team Inc.Sigma Team Inc.
164 Low Magic Age Jan 10, 2017 $14.99N/A (N/A)100,000 .. 200,0000%00:00 (00:00)Low Magic StudiosLow Magic Studios
165 Advanced Gaming Platform::Epica Dec 22, 2016 $19.99N/A (N/A)20,000 .. 50,0000%00:00 (00:00)AGP::StudiosAGP::Studios
166 Castle Battles Dec 16, 2016 $9.99N/A (N/A)0 .. 20,0000%00:00 (00:00)Light Arc Studio LtdLight Arc Studio Ltd
167 Moekuri: Adorable + Tactical SRPG Dec 16, 2016 $11.99N/A (N/A)20,000 .. 50,0000%00:00 (00:00)MokyuSoftCulture Select
168 Disgraced Jun 20, 2016 $8.99N/A (N/A)20,000 .. 50,0000%00:00 (00:00)Corrosive Studios LLCCorrosive Studios LLC
169 Dungeon Rats Nov 4, 2016 $4.99N/A (N/A)50,000 .. 100,0000%00:00 (00:00)Iron Tower StudioIron Tower Studio
170 Farabel Oct 14, 2016 $9.99N/A (N/A)0 .. 20,0000%00:00 (00:00)FrogamesFrogames, Goblinz Digital, indienova
171 Stellar Tactics Sep 22, 2016 $19.99N/A (N/A)50,000 .. 100,0000%00:00 (00:00)Maverick GamesMaverick Games
172 Sorcerer King: Rivals Sep 22, 2016 $19.99N/A (N/A)50,000 .. 100,0000%00:00 (00:00)Stardock EntertainmentStardock Entertainment
173 Wooden House Sep 5, 2016 $0.99N/A (N/A)100,000 .. 200,0000%00:00 (00:00)GDNomadInfernal Dream
174 Mugen Souls Z Aug 25, 2016 $19.99N/A (N/A)0 .. 20,0000%00:00 (00:00)Idea FactoryGhostlight LTD
175 Phantom Brave PC Jul 25, 2016 $19.99N/A (N/A)50,000 .. 100,0000%00:00 (00:00)Nippon Ichi Software, Inc.NIS America, Inc.
176 Monsters' Den: Book of Dread Jul 19, 2016 $4.99N/A (N/A)20,000 .. 50,0000%00:00 (00:00)MonstrumMonstrum
177 Frost Jul 5, 2016 $6.99N/A (N/A)0 .. 20,0000%00:00 (00:00)Jérôme BodinLe Studio des Ténèbres
178 Bastard Bonds Apr 29, 2016 $10.99N/A (N/A)20,000 .. 50,0000%00:00 (00:00)BigfingersBigfingers
179 Flesh Eaters May 3, 2016 $1.99N/A (N/A)500,000 .. 1,000,0000%00:00 (00:00)S.C. 16 BIT NIGHTS S.R.L.S.C. 16 BIT NIGHTS S.R.L.
180 Hyperdevotion Noire: Goddess Black Heart (Neptunia) Apr 26, 2016 $14.99N/A (N/A)100,000 .. 200,0000%00:00 (00:00)Idea Factory, Compile Heart, StingIdea Factory International
181 Worlds of Chaos: Invasion Feb 10, 2016 $14.99N/A (N/A)0 .. 20,0000%00:00 (00:00)TactichaosTactichaos
182 Miolhr Jan 15, 2016 $7.99N/A (N/A)0 .. 20,0000%00:00 (00:00)Miolhr CompanyMiolhr Company
183 Into the Void Dec 4, 2015 $1.99N/A (N/A)20,000 .. 50,0000%00:00 (00:00)Mozg LabsMozg Labs
184 Voidspire Tactics Nov 2, 2015 $14.99N/A (N/A)20,000 .. 50,0000%00:00 (00:00)Rad CodexRad Codex
185 Mugen Souls Oct 22, 2015 $19.99N/A (N/A)50,000 .. 100,0000%00:00 (00:00)Idea FactoryGhostlight LTD
186 Fairspace Oct 21, 2015 $8.99N/A (N/A)0 .. 20,0000%00:00 (00:00)Sub Orbital SoftwareSub Orbital Software
187 Reverse Crawl Sep 24, 2015 $5.99N/A (N/A)50,000 .. 100,0000%00:00 (00:00)Nerdook ProductionsDigerati
188 Templar Battleforce Sep 21, 2015 $9.99N/A (N/A)100,000 .. 200,0000%00:00 (00:00)Trese BrothersTrese Brothers
189 Braveland Pirate Sep 14, 2015 $9.99N/A (N/A)20,000 .. 50,0000%00:00 (00:00)Tortuga TeamTortuga Team
190 Renowned Explorers: International Society Sep 2, 2015 $19.99N/A (N/A)200,000 .. 500,0000%00:00 (00:00)Abbey GamesAbbey Games
191 Fallen: A2P Protocol Aug 14, 2015 $9.99N/A (N/A)20,000 .. 50,0000%00:00 (00:00)Red KatanaRed Katana
192 Breach & Clear: Deadline Rebirth (2016) Jul 20, 2015 $9.99N/A (N/A)100,000 .. 200,0000%00:00 (00:00)Mighty Rabbit Studios, Gun MediaGood Shepherd Entertainment, Devolver Digital
193 Age of Fear: The Undead King Jun 26, 2015 $19.99N/A (N/A)20,000 .. 50,0000%00:00 (00:00)Leslaw SliwkoAge of Fear
194 Centauri Sector Jun 24, 2015 $4.99N/A (N/A)20,000 .. 50,0000%00:00 (00:00)LW GamesLW Games
195 Tap Heroes Jun 5, 2015 $2.99N/A (N/A)100,000 .. 200,0000%00:00 (00:00)VaragtPVaragtP
196 Waste Walkers Jun 1, 2015 $4.76N/A (N/A)20,000 .. 50,0000%00:00 (00:00)Corrosive Studios LLCCorrosive Studios LLC
197 Telepath Tactics Apr 16, 2015 $14.99N/A (N/A)0 .. 20,0000%00:00 (00:00)Sinister DesignSinister Design
198 Age of Fear 2: The Chaos Lord GOLD Mar 27, 2016 $19.99N/A (N/A)20,000 .. 50,0000%00:00 (00:00)Leslaw SliwkoAge of Fear
199 FLAMBERGE Mar 25, 2015 $9.99N/A (N/A)0 .. 20,0000%00:00 (00:00)HYDEZEKEStardock Entertainment
200 Agarest: Generations of War 2 Feb 19, 2015 $19.99N/A (N/A)20,000 .. 50,0000%00:00 (00:00)Idea FactoryGhostlight LTD
201 Rime Berta Dec 16, 2014 $14.99N/A (N/A)20,000 .. 50,0000%00:00 (00:00)NEXT-SOFT+PLAYISM
202 Caravaneer 2 Dec 7, 2014 $5.99N/A (N/A)50,000 .. 100,0000%00:00 (00:00)Dmitry ZheltobriukhovDmitry Zheltobriukhov
203 Braveland Wizard Dec 4, 2014 $7.99N/A (N/A)20,000 .. 50,0000%00:00 (00:00)Tortuga TeamTortuga Team
204 Valkyria Chronicles Nov 11, 2014 $6.79N/A (N/A)500,000 .. 1,000,0001.61%00:03 (00:01)SEGASEGA
205 Sproggiwood Oct 24, 2014 $14.99N/A (N/A)50,000 .. 100,0000%00:00 (00:00)Freehold GamesFreehold Games
206 Fantasy Grounds Classic May 9, 2014 $39.99N/A (N/A)100,000 .. 200,0000%00:00 (00:00)SmiteWorks USA, LLCSmiteWorks USA, LLC
207 7,62 High Calibre Apr 30, 2014 $4.99N/A (N/A)50,000 .. 100,0000%00:00 (00:00)Apeiron1C Entertainment
208 Heroes of Steel RPG Apr 23, 2014 $9.99N/A (N/A)50,000 .. 100,0000%00:00 (00:00)Trese BrothersTrese Brothers
209 Jagged Alliance 1: Gold Edition Jun 2, 1994 $9.99N/A (N/A)100,000 .. 200,0000%00:00 (00:00)Sir-Tech, Madlab SoftwareTHQ Nordic
210 Agarest: Generations of War Zero Apr 17, 2014 $19.99N/A (N/A)50,000 .. 100,0000%00:00 (00:00)Idea FactoryGhostlight LTD
211 Braveland Mar 17, 2014 $6.99N/A (N/A)5,000,000 .. 10,000,0000%00:00 (00:00)Tortuga TeamTortuga Team
212 Agarest: Generations of War Feb 4, 2014 $14.99N/A (N/A)100,000 .. 200,0000%00:00 (00:00)Idea FactoryGhostlight LTD
213 Gorky 17 Dec 31, 1999 $4.99N/A (N/A)200,000 .. 500,0000%00:00 (00:00)Topware Interactive ACE
214 Jagged Alliance 2 - Wildfire Mar 8, 2004 $6.99N/A (N/A)500,000 .. 1,000,0000%00:00 (00:00)I-deal GamesTopware Interactive
215 Defender's Quest: Valley of the Forgotten (DX edition) Oct 30, 2012 $14.99N/A (N/A)200,000 .. 500,0000%00:00 (00:00)Level Up Labs, LLCLevel Up Labs
216 Shining Force Jan 26, 2011 $0.99N/A (N/A)0 .. 20,0000%00:00 (00:00)SEGASEGA
217 Shining Force II Jan 26, 2011 $0.99N/A (N/A)0 .. 20,0000%00:00 (00:00)SEGASEGA
218 Knights of the Chalice Aug 10, 2009 $19.99N/A (N/A)0 .. 20,0000%00:00 (00:00)Heroic Fantasy Games Dot ComHeroic Fantasy Games Dot Com
219 Lost Patrol Jun 1, 1991 $5.99N/A (N/A)100,000 .. 200,0000%00:00 (00:00)Shadow DevelopmentPixel Games UK
220 Guild of Ascension Sep 21, 2021 $13.49N/A (N/A)0 .. 20,0000%00:00 (00:00)WhileOne ProductionsPID Games
221 Oath of Miko Sep 20, 2021 $3.59N/A (N/A)0 .. 20,0000%00:00 (00:00)PotS, オスファスPotS
222 Everpixel Tactics Sep 17, 2021 $9.99N/A (N/A)20,000 .. 50,0000%00:00 (00:00)Doom Dino GamesDoom Dino Games
223 Grim wanderings 2 Sep 15, 2021 $5.99N/A (N/A)50,000 .. 100,0000%00:00 (00:00)Ellinia gamesEllinia games
224 Table of Tales: The Crooked Crown Sep 14, 2021 $24.99N/A (N/A)0 .. 20,0000%00:00 (00:00)Tin Man Games, Zero One StudioTin Man Games
225 Avalom: Ancestral Heroes Sep 13, 2021 $17.99N/A (N/A)0 .. 20,0000%00:00 (00:00)WAGNER ROCHAINDIE
226 Terrain of Magical Expertise Sep 9, 2021 $24.99N/A (N/A)0 .. 20,0000%00:00 (00:00)NEO-C Productions L.L.C1C Entertainment
227 Hammerheart Sep 6, 2021 $15.99N/A (N/A)20,000 .. 50,0000%00:00 (00:00)Bennett FarmerBennett Farmer
228 Office Strike War - Multiplayer Battle Royale Sep 2, 2021 $1.99N/A (N/A)0 .. 20,0000%00:00 (00:00)Bad Kids GamesAtomic Fabrik, Cristian Manolachi
229 Aurora - Hidden Colors Sep 2, 2021 $3.99N/A (N/A)100,000 .. 200,0000%00:00 (00:00)Aurora - Mídia & GamesAurora - Mídia & Games
230 Soul Nomad & the World Eaters Aug 31, 2021 $19.99N/A (N/A)0 .. 20,0000%00:00 (00:00)Nippon Ichi Software, Inc., CodeglueNIS America, Inc.
231 The Curse of Feldar Vale Aug 30, 2021 $4.99N/A (N/A)0 .. 20,0000%00:00 (00:00)Ian C PookPaphian Games
232 Three Fairies' Hoppin' Flappin' Great Journey! Aug 27, 2021 $17.99N/A (N/A)0 .. 20,0000%00:00 (00:00)yomogi_softPhoenixx Inc.
233 Captures Aug 26, 2021 $1.99N/A (N/A)0 .. 20,0000%00:00 (00:00)cosmic_dustcosmic_dust
234 Der Geisterjäger / The Ghost Hunter Aug 26, 2021 $17.99N/A (N/A)0 .. 20,0000%00:00 (00:00)Graverobber FoundationGraverobber Foundation
235 Elmarion: the Lost Temple Aug 26, 2021 $9.99N/A (N/A)0 .. 20,0000%00:00 (00:00)Fleon GamesFleon Games
236 Black Geyser: Couriers of Darkness Aug 26, 2021 $24.99N/A (N/A)50,000 .. 100,0000%00:00 (00:00)GrapeOcean TechnologiesV Publishing, GrapeOcean Technologies
237 Ultimate ADOM - Caverns of Chaos Aug 25, 2021 $19.99N/A (N/A)0 .. 20,0000%00:00 (00:00)Thomas Biskup, Jochen Terstiege, Krzysztof Dycha, Lucas Dieguez, Bastian von Gostomski, Carola Sochiera, Björn LoesingAssemble Entertainment, WhisperGames
238 King's Bounty II Aug 24, 2021 $49.99N/A (N/A)100,000 .. 200,00028.57%01:03 (00:41)1C Entertainment1C Entertainment, Prime Matter, 方块游戏 (China)
239 Station Commander Aug 23, 2021 $9.99N/A (N/A)50,000 .. 100,0000%00:00 (00:00)Ben Marks Game StudiosBen Marks Game Studios
240 Heroes of Yore Aug 23, 2021 $6.99N/A (N/A)0 .. 20,0000%00:00 (00:00)Vogel Vision LLCVogel Vision LLC
241 UFO vs Bikini Aug 23, 2021 $8.99N/A (N/A)0 .. 20,0000%00:00 (00:00)Xenon LuWELOVEBOT CO., LTD.
242 LABYRINTH OF TOUHOU - GENSOUKYO AND THE HEAVEN-PIERCING TREE Aug 23, 2021 $29.99N/A (N/A)50,000 .. 100,0000%00:00 (00:00)Nise-Eikoku Studio, CUBETYPECUBETYPE
243 Project Martians Aug 22, 2021 $7.99N/A (N/A)0 .. 20,0000%00:00 (00:00)Stanislaw DevStanislaw Dev
244 Nayati River Aug 20, 2021 $34.99N/A (N/A)20,000 .. 50,0000%00:00 (00:00)Worlds To PlayWorlds To Play
245 选王之剑 Aug 17, 2021 $7.99N/A (N/A)0 .. 20,0000%00:00 (00:00)绝汪DreamStep
246 Endorfire Tower Defense Aug 13, 2021 $9.99N/A (N/A)0 .. 20,0000%00:00 (00:00)The ZooThe Zoo
247 Bionite: Origins Aug 13, 2021 $11.99N/A (N/A)0 .. 20,0000%00:00 (00:00)Platoon StudiosPlatoon Studios
248 Dust to the End Aug 11, 2021 $11.99N/A (N/A)50,000 .. 100,0000%00:00 (00:00)Haojoy Game, Zjoy Game2P Games
249 The Last Hope: Zombie Defense TD Aug 10, 2021 $1.99N/A (N/A)0 .. 20,0000%00:00 (00:00)DUK GamesDUK Games
250 DarkFighter Aug 9, 2021 $1.99N/A (N/A)20,000 .. 50,0000%00:00 (00:00)清泉工作室清泉工作室
251 Dungeon Overseer Aug 6, 2021 $19.99N/A (N/A)0 .. 20,0000%00:00 (00:00)RipknotRipknot
252 团长别生气 Aug 5, 2021 $7.99N/A (N/A)0 .. 20,0000%00:00 (00:00)掌烛文化掌烛文化
253 GATE Jul 30, 2021 $4.99N/A (N/A)0 .. 20,0000%00:00 (00:00)Banshee CatBanshee Cat
254 Smithy Wars Jul 30, 2021 $14.99N/A (N/A)20,000 .. 50,0000%00:00 (00:00)Bigboot StudiosBigboot Studios
255 RPG: Squad battle Jul 22, 2021 $4.99N/A (N/A)0 .. 20,0000%00:00 (00:00)Tero Lunkka, Valkeala SoftwareTero Lunkka
256 AirFighter Jul 20, 2021 $0.51N/A (N/A)0 .. 20,0000%00:00 (00:00)LTRG corp.khukhrovr
257 Tactical Vanguard Saga Jul 20, 2021 $4.99N/A (N/A)100,000 .. 200,0000%00:00 (00:00)Blacc Ski Weekend IndustriesBlacc Ski Weekend Industries
258 Renova Jul 20, 2021 $3.99N/A (N/A)0 .. 20,0000%00:00 (00:00)Teutonic GamesTeutonic Games
259 The Protagonist: EX-1 Jul 18, 2021 $24.99N/A (N/A)20,000 .. 50,0000%00:00 (00:00)3Mind Games3Mind Games
260 Pest Control Jul 15, 2021 $11.99N/A (N/A)0 .. 20,0000%00:00 (00:00)EON46Ritual Interactive
261 There May Be Ninety-Nine Of Us, But We Have To Win In Ninety-Nine Turns! Jul 14, 2021 $3.99N/A (N/A)0 .. 20,0000%00:00 (00:00)Cannibal InteractiveCannibal Interactive
262 S.O.T.A 2 Jul 14, 2021 $4.99N/A (N/A)20,000 .. 50,0000%00:00 (00:00)S.O.T.A GamesS.O.T.A Games
263 NEO: Commanders Jul 9, 2021 $4.99N/A (N/A)0 .. 20,0000%00:00 (00:00)SZEINERSZEINER
264 明明如月 Jul 2, 2021 $5.99N/A (N/A)0 .. 20,0000%00:00 (00:00)希言游戏希言游戏
265 Kuro Tactics Jul 1, 2021 $4.99N/A (N/A)20,000 .. 50,0000%00:00 (00:00)KurowareLLCKurowareLLC
266 Merge & Blade Jun 29, 2021 $5.99N/A (N/A)20,000 .. 50,0000%00:00 (00:00)Magic CubeMagic Cube
267 Cheap Game 3 Jun 28, 2021 $0.99N/A (N/A)50,000 .. 100,0000%00:00 (00:00)LongerGamesStudioLongerGamesStudio
268 Mecha Tactics Jun 28, 2021 $1.99N/A (N/A)0 .. 20,0000%00:00 (00:00)NullBudget GamesNullBudget Games
269 Eiyu*Senki Gold – A New Conquest Jun 25, 2021 $34.99N/A (N/A)20,000 .. 50,0000%00:00 (00:00)TencoJAST USA, Kagura Games (Chinese Localization)
270 Live by the Sword: Tactics Jun 23, 2021 $24.99N/A (N/A)0 .. 20,0000%00:00 (00:00)Labrador StudiosLabrador Studios
271 Endless Love Jun 22, 2021 $1.99N/A (N/A)0 .. 20,0000%00:00 (00:00)玫瑰工作室玫瑰工作室
272 The Legends in Kylamar Jun 21, 2021 $9.99N/A (N/A)0 .. 20,0000%00:00 (00:00)Gamma Knight StudiosGamma Knight Studios
273 Amneron's Legacy Jun 17, 2021 $8.99N/A (N/A)20,000 .. 50,0000%00:00 (00:00)Rythane (JRH)Rythane (JRH)
274 UFO2: Extraterrestrials Jun 15, 2021 $34.99N/A (N/A)0 .. 20,0000%00:00 (00:00)Chaos ConceptChaos Concept
275 The Girl Who Sees Jun 11, 2021 $8.99N/A (N/A)100,000 .. 200,0000%00:00 (00:00)InterIntellectus NFPInterIntellectus NFP
276 Warlike Jun 10, 2021 $3.99N/A (N/A)0 .. 20,0000%00:00 (00:00)Peter KnakPeter Knak
277 仙路志异 Jun 10, 2021 $5.99N/A (N/A)0 .. 20,0000%00:00 (00:00)Big Flag StudioBig Flag Studio
278 Rise Eterna Jun 9, 2021 $13.39N/A (N/A)0 .. 20,0000%00:00 (00:00)Makee, Forever Entertainment S. A.Forever Entertainment S. A.
279 Defense Tower Simulator Jun 5, 2021 $1.99N/A (N/A)0 .. 20,0000%00:00 (00:00)CoolCraftGamesCoolCraftGames
280 The Handbook Jun 4, 2021 $5.99N/A (N/A)20,000 .. 50,0000%00:00 (00:00)Ivories StudiosIvories Studios
281 Sabre Team Jan 1, 1992 $6.99N/A (N/A)2,000,000 .. 5,000,0000%00:00 (00:00)Krisalis SoftwareZiggurat
282 The Last Spell Jun 3, 2021 $17.99N/A (N/A)200,000 .. 500,0000%00:00 (00:00)Ishtar GamesThe Arcade Crew, Gamera Game
283 Infiltration: Alone in Combat Jun 2, 2021 $5.99N/A (N/A)20,000 .. 50,0000%00:00 (00:00)Elvio LujánElvio Luján
284 リトルハーツ May 28, 2021 $4.99N/A (N/A)0 .. 20,0000%00:00 (00:00)ゆーぎりゆーぎり
285 Love n War: Warlord by Chance May 28, 2021 $2.99N/A (N/A)50,000 .. 100,00016.67%02:01 (00:40)Reborn EntertainmentReborn Entertainment
286 Solasta: Crown of the Magister May 27, 2021 $39.99N/A (N/A)200,000 .. 500,0000%00:00 (00:00)Tactical AdventuresTactical Adventures
287 Crystal Raiders VR May 21, 2021 $14.99N/A (N/A)0 .. 20,0000%00:00 (00:00)"Nieko"VRKiwi
288 Album Corvus May 21, 2021 $12.99N/A (N/A)0 .. 20,0000%00:00 (00:00)Devil's Dozen GamesDevil's Dozen Games
289 Rise of the Slime May 20, 2021 $14.99N/A (N/A)0 .. 20,0000%00:00 (00:00)Bunkovsky GamesPlaystack
290 Fabled Lands May 20, 2021 $14.99N/A (N/A)20,000 .. 50,0000%00:00 (00:00)Prime GamesPrime Games
291 Metaverse: Origins May 17, 2021 $9.99N/A (N/A)0 .. 20,0000%00:00 (00:00)Penumbra.techPenumbra.tech
292 The Hand of Merlin May 11, 2021 $24.99N/A (N/A)0 .. 20,0000%00:00 (00:00)Room-C Games, CroteamVersus Evil
293 Chroma Quaternion May 6, 2021 $14.99N/A (N/A)0 .. 20,0000%00:00 (00:00)Exe Create Inc.KEMCO
294 Keezeh The Spector of Time May 2, 2021 $1.99N/A (N/A)0 .. 20,0000%00:00 (00:00)rabbani prottoychalidus
295 Age of Fear 4: The Iron Killer Apr 30, 2021 $24.99N/A (N/A)0 .. 20,0000%00:00 (00:00)Leslaw SliwkoAge of Fear
296 Obsidian Prince Apr 28, 2021 $14.99N/A (N/A)0 .. 20,0000%00:00 (00:00)Unleash the GiraffeUnleash the Giraffe, Gameclaw Studio
297 Heaven vs Hell Apr 27, 2021 $4.99N/A (N/A)0 .. 20,0000%00:00 (00:00)Neex GamesGreenolor Studio
298 Elixir of Life Apr 26, 2021 $6.99N/A (N/A)0 .. 20,0000%00:00 (00:00)Gurcan GamesGurcan Games
299 Katja's Abyss: Tactics Apr 23, 2021 $10.99N/A (N/A)50,000 .. 100,0000%00:00 (00:00)Kiefer NemethKiefer Nemeth
300 NovaMundi: The Spear of Chaquén Apr 13, 2021 $12.99N/A (N/A)0 .. 20,0000%00:00 (00:00)Slashware InteractiveSlashware Interactive
301 Dragon Hunters Apr 9, 2021 $19.99N/A (N/A)50,000 .. 100,0000%00:00 (00:00)Sigonheart Games LLCSigonheart Games LLC
302 Strike Team Gladius Apr 8, 2021 $24.99N/A (N/A)0 .. 20,0000%00:00 (00:00)Wave Light Games Inc.Wave Light Games Inc.
303 Sentinel: Cursed Knight Aug 10, 2021 $4.99N/A (N/A)100,000 .. 200,0000%00:00 (00:00)Sentinel StudiosSentinel Studios
304 Tactical Battle Chronicles: Prelude to a War Apr 7, 2021 $14.99N/A (N/A)0 .. 20,0000%00:00 (00:00)Andrew GardnerAndrew Gardner
305 Colony Ship: A Post-Earth Role Playing Game Apr 6, 2021 $24.99N/A (N/A)20,000 .. 50,0000%00:00 (00:00)Iron Tower StudioIron Tower Studio
306 FPS Tactics Apr 5, 2021 $9.99N/A (N/A)20,000 .. 50,0000%00:00 (00:00)FPS TacticsFPS Tactics
307 Chesstle Apr 2, 2021 $4.99N/A (N/A)0 .. 20,0000%00:00 (00:00)Devil Kitty Games, LLCDevil Kitty Games, LLC
308 下一站江湖Ⅰ Apr 1, 2021 $19.99N/A (N/A)0 .. 20,0000%00:00 (00:00)白玉京工作室成都搜发互娱网络科技有限公司
309 Insanium Mar 31, 2021 $3.99N/A (N/A)20,000 .. 50,0000%00:00 (00:00)Conan McPhee, Joe AssiCatsmeat Studios
310 Apollyon: River of Life Mar 31, 2021 $14.99N/A (N/A)50,000 .. 100,0000%00:00 (00:00)ThuynderThuynder
311 REM Cycles Mar 31, 2021 $14.99N/A (N/A)0 .. 20,0000%00:00 (00:00)Indispensable StudiosIndispensable Studios
312 Dee-6: Dice Defenders Apr 1, 2021 $4.99N/A (N/A)0 .. 20,0000%00:00 (00:00)KBA3u's factoryKBA3u's factory
313 The Shadow of Yidhra Mar 28, 2021 $10.99N/A (N/A)20,000 .. 50,0000%00:00 (00:00)WhitePeachWhitePeach
314 守卫魔兽-Guardian of Warcraft Mar 26, 2021 $6.99N/A (N/A)0 .. 20,0000%00:00 (00:00)长生长生
315 Dragon Blast - Crazy Action Super Hero Game Mar 26, 2021 $1.99N/A (N/A)0 .. 20,0000%00:00 (00:00)Blazio StudiosUY Studios
316 Black Legend Mar 25, 2021 $19.99N/A (N/A)20,000 .. 50,0000%00:00 (00:00)WarcaveWarcave
317 Realms of Antiquity: The Shattered Crown Dec 29, 2020 $20N/A (N/A)0 .. 20,0000%00:00 (00:00)Adam HaaseQuixotic Software
318 Burg Battle Mar 22, 2021 $9.99N/A (N/A)0 .. 20,0000%00:00 (00:00)ElevenSeventy, LLCElevenSeventy, LLC
319 Battle for Esturia Mar 20, 2020 $9.99N/A (N/A)0 .. 20,0000%00:00 (00:00)Esturia GamesEsturia Games
320 Magellania Mar 18, 2021 $9.99N/A (N/A)50,000 .. 100,0000%00:00 (00:00)Studio LandStudio Land
321 Golden Fall 2 Mar 21, 2021 $5.99N/A (N/A)0 .. 20,0000%00:00 (00:00)Ofer RubinsteinOfer Rubinstein
322 Majestic Trials Mar 11, 2021 $14.99N/A (N/A)20,000 .. 50,0000%00:00 (00:00)Alpha Strike Games LimitedAlpha Strike Games Limited
323 ChessLocke Mar 4, 2021 $6.99N/A (N/A)0 .. 20,0000%00:00 (00:00)Taylor "Loxxulus" HattonTaylor "Loxxulus" Hatton
324 Synth War Tactics Mar 2, 2021 $4.99N/A (N/A)0 .. 20,0000%00:00 (00:00)Bryce HochstedlerBryce Hochstedler
325 Urtuk: The Desolation Feb 27, 2021 $19.99N/A (N/A)20,000 .. 50,0000%00:00 (00:00)David KaletaDavid Kaleta
326 恐惧之间 Fear surrounds Feb 26, 2021 $7.99N/A (N/A)200,000 .. 500,0007.69%10:26 (03:28)SaltyEgg StudioYooreka Studio
327 Kitty Tactics Feb 24, 2021 $2.39N/A (N/A)20,000 .. 50,0000%00:00 (00:00)Ibe DenauxIbe Denaux
328 Might is Right Feb 19, 2021 $14.99N/A (N/A)0 .. 20,0000%00:00 (00:00)Lazy KittyLazy Kitty
329 Steven Universe: Unleash the Light Feb 19, 2021 $24.99N/A (N/A)50,000 .. 100,0000%00:00 (00:00)Grumpyface StudiosCartoon Network Games
330 Shores Unknown Feb 17, 2021 $19.99N/A (N/A)0 .. 20,0000%00:00 (00:00)VallynneHitcents
331 Bravery Network Online Feb 16, 2021 $24.99N/A (N/A)0 .. 20,0000%00:00 (00:00)GLOAMGLOAM
332 ROGUERIA: Roguelikes X Tactics Feb 13, 2021 $14.49N/A (N/A)0 .. 20,0000%00:00 (00:00)Waxycorn Studio.Waxycorn Studio.
333 CELLAR | Rags and Knife Feb 10, 2021 $9.99N/A (N/A)20,000 .. 50,0000%00:00 (00:00)Pavel DivnenkoPavel Divnenko
334 Magical Battle Cry Feb 8, 2021 $11.99N/A (N/A)50,000 .. 100,0000%00:00 (00:00)羲和工作室羲和工作室
335 Killer 19 Feb 6, 2021 $2.99N/A (N/A)20,000 .. 50,0000%00:00 (00:00)SkyLine Studio, 熊昊思成, 徐熙尧SkyLine Studio
336 Cartridge Monsters Feb 4, 2021 $4.99N/A (N/A)20,000 .. 50,0000%00:00 (00:00)Happenstance GamesHappenstance Games
337 Fractalis Feb 2, 2021 $7.99N/A (N/A)20,000 .. 50,0000%00:00 (00:00)Revolutionary InteractiveRevolutionary Interactive
338 No.L85 Feb 2, 2021 $1.99N/A (N/A)0 .. 20,0000%00:00 (00:00)LiZhengLiZheng
339 Text RPG Feb 1, 2021 $2.99N/A (N/A)0 .. 20,0000%00:00 (00:00)LongerGamesStudioLongerGamesStudio
340 Red Hands – 2-Player Game Jan 29, 2021 $4.99N/A (N/A)0 .. 20,0000%00:00 (00:00)PeakselPeaksel
341 鬼谷八荒 Tale of Immortal Jan 27, 2021 $19.99N/A (N/A)10,000,000 .. 20,000,0005.92%02:34 (04:10)鬼谷工作室鬼谷工作室, Lightning Games
342 King Arthur: Knight's Tale Jan 26, 2021 $34.99N/A (N/A)20,000 .. 50,0000%00:00 (00:00)NeocoreGamesNeocoreGames
343 Utawarerumono: Prelude to the Fallen Jan 22, 2021 $59.99N/A (N/A)0 .. 20,0000%00:00 (00:00)AQUAPLUSDMM GAMES, Shiravune
344 Lethal Running Jan 15, 2021 $17.99N/A (N/A)0 .. 20,0000%00:00 (00:00)voodoosoftvoodoosoft
345 Gemini Strategy Origin Jan 13, 2021 $4.99N/A (N/A)0 .. 20,0000%00:00 (00:00)Gemini Stars GamesHappy Max
346 Heroes of the Three Kingdoms 8 Jan 12, 2021 $25.49N/A (N/A)100,000 .. 200,00014.29%00:59 (00:19)USERJOY Technology Co.,Ltd.USERJOY Technology Co.,Ltd.
347 Content Creator's Internet Adventure Jan 10, 2021 $4.99N/A (N/A)0 .. 20,0000%00:00 (00:00)James R TrimbleSaladite Games
348 Shards of Feyra Jan 10, 2021 $4.99N/A (N/A)0 .. 20,0000%00:00 (00:00)Feyra OnlineFeyra Online
349 列传:革新战争 Jan 7, 2021 $16.99N/A (N/A)0 .. 20,0000%00:00 (00:00)Ash Game StudioDreamStep
350 ZombieWave-UnlimitedChallenges Dec 20, 2020 $1.99N/A (N/A)100,000 .. 200,0000%00:00 (00:00)AlloyStoveAlloyStove
351 Two Die Jan 6, 2021 $4.99N/A (N/A)0 .. 20,0000%00:00 (00:00)Jon Lamont, Jon BraunJon Lamont, Jon Braun
352 Unsung Story Dec 17, 2020 $29.99N/A (N/A)0 .. 20,0000%00:00 (00:00)Little OrbitLittle Orbit
353 Sink Again Dec 17, 2020 $9.99N/A (N/A)20,000 .. 50,0000%00:00 (00:00)FlatcoonFlatcoon
354 Arcanium: Rise of Akhan Dec 8, 2020 $16.99N/A (N/A)0 .. 20,0000%00:00 (00:00)Supercombo, Inc.Rogue Games, Inc.
355 Guildmaster: Gratuitous Subtitle Dec 7, 2020 $13.99N/A (N/A)0 .. 20,0000%00:00 (00:00)Jim Makes GamesJim Makes Games
356 Ruinverse Dec 3, 2020 $14.99N/A (N/A)0 .. 20,0000%00:00 (00:00)Exe Create Inc.KEMCO
357 Mini War - Three Kingdoms Nov 30, 2020 $0.99N/A (N/A)0 .. 20,0000%00:00 (00:00)YangZeyuYangZeyu
358 Prime & Load : 1776 Apr 25, 2020 $7.99N/A (N/A)0 .. 20,0000%00:00 (00:00)Radio Silence EntertainmentRadio Silence Entertainment
359 Kilta Nov 20, 2020 $12.99N/A (N/A)0 .. 20,0000%00:00 (00:00)myTrueSoundmyTrueSound
360 Eterna: Heroes Fall Nov 19, 2020 $24.99N/A (N/A)0 .. 20,0000%00:00 (00:00)Zu DigitalZu Digital
361 Eldrador Creatures Nov 19, 2020 $19.99N/A (N/A)0 .. 20,0000%00:00 (00:00)Independent Arts Software GmbHWild River Games
362 Raiders! Forsaken Earth Nov 10, 2020 $19.99N/A (N/A)20,000 .. 50,0000%00:00 (00:00)Creative Storm EntertainmentCreativeForge Games
363 Myth Bearer Nov 10, 2020 $2.99N/A (N/A)0 .. 20,0000%00:00 (00:00)JC BaileyJC Bailey
364 Fantasy Grounds Unity Nov 5, 2020 $39.99N/A (N/A)20,000 .. 50,0000%00:00 (00:00)SmiteWorks USA, LLCSmiteWorks USA, LLC
365 Crystal Ortha Nov 5, 2020 $14.99N/A (N/A)20,000 .. 50,0000%00:00 (00:00)Hit-Point Co.,Ltd.KEMCO
366 Battle Hunters Nov 4, 2020 $14.99N/A (N/A)0 .. 20,0000%00:00 (00:00)Phase Two Games Pty. Ltd.Phase Two Games Pty. Ltd.
367 Kingdom Of Force Nov 1, 2020 $6.99N/A (N/A)0 .. 20,0000%00:00 (00:00)Beijing Hydra Technology Co., Ltd.Beijing Hydra Technology Co., Ltd.
368 REALITY Oct 30, 2020 $1.99N/A (N/A)0 .. 20,0000%00:00 (00:00)LunaRolexLerLunaRolexLer
369 October Night Games Oct 29, 2020 $15.99N/A (N/A)0 .. 20,0000%00:00 (00:00)Octobear Knight GamesWhisperGames
370 Frag Oct 29, 2020 $5.99N/A (N/A)0 .. 20,0000%00:00 (00:00)ZuleZule
371 Dread Nautical Oct 27, 2020 $19.99N/A (N/A)0 .. 20,0000%00:00 (00:00)Zen StudiosZen Studios
372 Arcante Oct 27, 2020 $11.99N/A (N/A)20,000 .. 50,0000%00:00 (00:00)Luca FavanoLuca Favano
373 Clouds of Rain Oct 23, 2020 $3.99N/A (N/A)20,000 .. 50,0000%00:00 (00:00)Graphic Line GamesGraphic Line Games
374 Mystic Hammer Oct 23, 2020 $4.99N/A (N/A)0 .. 20,0000%00:00 (00:00)PozziSoftPozziSoft
375 The Dungeon Beneath Oct 23, 2020 $9.74N/A (N/A)0 .. 20,0000%00:00 (00:00)Puzzle Box GamesPuzzle Box Games
376 AbsentedAge: Squarebound Oct 23, 2020 $12.99N/A (N/A)50,000 .. 100,0000%00:00 (00:00)terunon's Labterunon's Lab
377 TRANSFORMERS: BATTLEGROUNDS Oct 22, 2020 $29.99N/A (N/A)0 .. 20,0000%00:00 (00:00)CoatsinkOutright Games Ltd.
378 Tenderfoot Tactics Oct 21, 2020 $14.99N/A (N/A)0 .. 20,0000%00:00 (00:00)Badru, Michael Bell, Isa Hutchinson, Taylor Thomas, Zoe Vartanian, Madison PatheIce Water Games
379 This Is Not Chess Oct 20, 2020 $7.99N/A (N/A)20,000 .. 50,0000%00:00 (00:00)Courtney DawsonCourtney Dawson
380 Kingdom Rush Vengeance - Tower Defense Oct 15, 2020 $19.99N/A (N/A)100,000 .. 200,0000%00:00 (00:00)Ironhide Game StudioIronhide Game Studio
381 Partisans 1941 Oct 14, 2020 $29.99N/A (N/A)200,000 .. 500,00025%00:24 (00:08)Alter GamesDaedalic Entertainment
382 Dragon Lapis Oct 1, 2020 $14.99N/A (N/A)0 .. 20,0000%00:00 (00:00)Exe Create Inc.KEMCO
383 蜀山幻剑录 Sword of Shushan Sep 24, 2020 $9.99N/A (N/A)0 .. 20,0000%00:00 (00:00)星罗云布工作室星罗云布工作室
384 Spacer: Legacies Sep 23, 2020 $18.99N/A (N/A)0 .. 20,0000%00:00 (00:00)Brazen LegionsBrazen Legions
385 Infectra Sep 22, 2020 $0.49N/A (N/A)0 .. 20,0000%00:00 (00:00)Boar-in-gamesBoar-in-games
386 A Gay Love Story About Gay Love Sep 14, 2020 $0.99N/A (N/A)0 .. 20,0000%00:00 (00:00)Sigyaad TeamSigyaad Team
387 Disgaea 4 Complete+ Sep 10, 2020 $39.99N/A (N/A)20,000 .. 50,0000%00:00 (00:00)Nippon Ichi Software, Inc.NIS America, Inc.
388 Necromunda: Underhive Wars Sep 7, 2020 $19.99N/A (N/A)100,000 .. 200,0000%00:00 (00:00)Rogue FactorFocus Home Interactive
389 Final Hope: The Plot Sep 3, 2020 $5.99N/A (N/A)0 .. 20,0000%00:00 (00:00)Djamp GamesDjamp Games
390 Time Break Chronicles Sep 1, 2020 $14.99N/A (N/A)50,000 .. 100,0000%00:00 (00:00)Warrior General Games, LLCWarrior General Games, LLC
391 Hell Pub Sep 1, 2020 $1.99N/A (N/A)0 .. 20,0000%00:00 (00:00)BJ StudioBJ Studio
392 Liege Dragon Aug 30, 2020 $9.74N/A (N/A)100,000 .. 200,0000%00:00 (00:00)Exe Create Inc.KEMCO
393 经天纪 Aug 23, 2020 $9.99N/A (N/A)20,000 .. 50,0000%00:00 (00:00)神经虾工作组欢乐不二
394 POLICE RESPONSE VR : DISTURBANCE Aug 21, 2020 $4.99N/A (N/A)0 .. 20,0000%00:00 (00:00)CALTAIN VR LtdCALTAIN VR Ltd
395 Battle Sweeper Aug 13, 2020 $4.99N/A (N/A)0 .. 20,0000%00:00 (00:00)AlpaSun GamesAlpaSun Games
396 For the People Aug 13, 2020 $16.99N/A (N/A)20,000 .. 50,0000%00:00 (00:00)Brezg Studio101XP
397 Canon - Legend of the New Gods Aug 7, 2020 $11.99N/A (N/A)0 .. 20,0000%00:00 (00:00)Super Fighter TeamPiko Interactive
398 Warriors of the Nile Aug 7, 2020 $12.99N/A (N/A)200,000 .. 500,0000%00:00 (00:00)Stove StudioGamera Game
399 Aye Aye, Captain Aug 4, 2020 $9.99N/A (N/A)0 .. 20,0000%00:00 (00:00)North State GamesNorth State Games
400 Westminster Darkly Aug 1, 2020 $3.99N/A (N/A)0 .. 20,0000%00:00 (00:00)Studio IncorrectStudio Incorrect
401 Fae Tactics Jul 31, 2020 $19.99N/A (N/A)50,000 .. 100,0000%00:00 (00:00)Endlessfluff GamesHumble Games
402 Chicken Bomb Jul 29, 2020 $0.99N/A (N/A)0 .. 20,0000%00:00 (00:00)GoesSoftGoesSoft
403 100-Level Dungeon Jul 23, 2020 $0.59N/A (N/A)0 .. 20,0000%00:00 (00:00)Jonathan.SJonathan.S
404 Stellaren II Jul 5, 2020 $3.99N/A (N/A)0 .. 20,0000%00:00 (00:00)nineduxninedux
405 大千世界 Jul 17, 2020 $3.99N/A (N/A)100,000 .. 200,0000%00:00 (00:00)滑稽工作室滑稽工作室
406 最后的大法师 光明之旅(Last Archmage Journey of Light) Jul 16, 2020 $6.99N/A (N/A)20,000 .. 50,0000%00:00 (00:00)Flying Star GamesFlying Star Games
407 AVRACH RESURRECTION Jul 15, 2020 $9.99N/A (N/A)50,000 .. 100,0000%00:00 (00:00)Fluffy BisonsFluffy Bisons
408 Dark Bestiary Jul 12, 2020 $11.99N/A (N/A)20,000 .. 50,0000%00:00 (00:00)QdQd
409 ARIA CHRONICLE Jul 12, 2020 $17.99N/A (N/A)50,000 .. 100,0000%00:00 (00:00)STUDIO N9CREST
410 Little Town Hero Jul 9, 2020 $24.99N/A (N/A)0 .. 20,0000%00:00 (00:00)GAME FREAK inc.GAME FREAK inc.
411 Apprentice Arriving Jul 7, 2020 $12.99N/A (N/A)100,000 .. 200,0000%00:00 (00:00)Jewel Seeker EntertainmentJewel Seeker Entertainment
412 Guile & Glory: Firstborn Jul 3, 2020 $9.99N/A (N/A)0 .. 20,0000%00:00 (00:00)Elston StudiosElston Studios
413 Droid Guier Jun 30, 2020 $2.09N/A (N/A)0 .. 20,0000%00:00 (00:00)Caztellary StudioCaztellary Studio
414 Angels on Tanks Jun 23, 2020 $14.99N/A (N/A)0 .. 20,0000%00:00 (00:00)Ninju GamesNinju Games
415 DungeonTop Jun 21, 2020 $15.99N/A (N/A)20,000 .. 50,0000%00:00 (00:00)One Up Plus EntertainmentOne Up Plus Entertainment, Surefire.Games
416 The Waylanders Jun 16, 2020 $34.99N/A (N/A)0 .. 20,0000%00:00 (00:00)GATO STUDIOGATO STUDIO
417 WARBORN Jun 12, 2020 $24.99N/A (N/A)0 .. 20,0000%00:00 (00:00)Raredrop Games LtdPQube Limited
418 The Dungeon Paradox Jun 2, 2020 $14.99N/A (N/A)0 .. 20,0000%00:00 (00:00)Digital SoftwareDigital Software
419 Tales Of Glory May 30, 2020 $29.99N/A (N/A)0 .. 20,0000%00:00 (00:00)BlackTale GamesBlackTale Games
420 Strategic Mind: Blitzkrieg May 22, 2020 $27.99N/A (N/A)20,000 .. 50,0000%00:00 (00:00)Starni GamesStarni Games
421 Cyber Ops May 21, 2020 $14.99N/A (N/A)20,000 .. 50,0000%00:00 (00:00)Octeto StudiosGames Operators
422 Moonfall May 20, 2020 $4.99N/A (N/A)0 .. 20,0000%00:00 (00:00)Zak AmanaZak Amana
423 Boston AInamics May 18, 2020 $9.99N/A (N/A)0 .. 20,0000%00:00 (00:00)Boston AInamicsBoston AInamics
424 Rise of the Foederati May 4, 2020 $8.9N/A (N/A)0 .. 20,0000%00:00 (00:00)Genos StudiosGenos Studios
425 Koi Unleashed Apr 29, 2020 $15.99N/A (N/A)0 .. 20,0000%00:00 (00:00)Wild GripWild Grip
426 TROUBLESHOOTER: Abandoned Children Apr 23, 2020 $16.74N/A (N/A)200,000 .. 500,0000%00:00 (00:00)DandylionDandylion
427 XCOM: Chimera Squad Apr 23, 2020 $19.99N/A (N/A)500,000 .. 1,000,0000%00:00 (00:00)Firaxis Games2K
428 Warhammer Underworlds: Online Apr 21, 2020 $9.99N/A (N/A)20,000 .. 50,0000%00:00 (00:00)Steel Sky ProductionsSteel Sky Productions
429 Survival Africa Apr 17, 2020 $16.99N/A (N/A)0 .. 20,0000%00:00 (00:00)Dean ThomasMeanDean Gaming
430 Fates of Ort Mar 31, 2020 $14.99N/A (N/A)0 .. 20,0000%00:00 (00:00)8BitSkull8BitSkull
431 Treachery in Beatdown City Mar 30, 2020 $8.99N/A (N/A)0 .. 20,0000%00:00 (00:00)Nuchallenger, HurakanWorksNuchallenger
432 Lovehammer 400 000: The Buttlerian Crusade Mar 27, 2020 $14.99N/A (N/A)0 .. 20,0000%00:00 (00:00)Nerd Commando Game StudiosNerd Commando Game Studios
433 Bonfire Mar 26, 2020 $14.39N/A (N/A)0 .. 20,0000%00:00 (00:00)MoaCubeMoaCube
434 Grand Guilds Mar 26, 2020 $19.99N/A (N/A)0 .. 20,0000%00:00 (00:00)Drix StudiosDrix Studios
435 Iron Danger Mar 25, 2020 $3.99N/A (N/A)0 .. 20,0000%00:00 (00:00)Action Squad StudiosDaedalic Entertainment
436 Horizon's Gate Mar 9, 2020 $19.99N/A (N/A)50,000 .. 100,0000%00:00 (00:00)Rad CodexRad Codex
437 Frontline: Panzer Blitzkrieg! Mar 6, 2020 $9.99N/A (N/A)0 .. 20,0000%00:00 (00:00)Frontline: Games SeriesFrontline: Games Series
438 Mainframe Defenders Feb 25, 2020 $9.99N/A (N/A)50,000 .. 100,0000%00:00 (00:00)Synthetic DomainMega9pixel
439 Wasteland Remastered Feb 25, 2020 $14.99N/A (N/A)0 .. 20,0000%00:00 (00:00)inXile Entertainment, Krome StudiosinXile Entertainment
440 RaidTitans Feb 6, 2020 $4.49N/A (N/A)0 .. 20,0000%00:00 (00:00)RainbowStudioRainbowStudio
441 Mortal Glory Jan 29, 2020 $7.99N/A (N/A)50,000 .. 100,0000%00:00 (00:00)Redbeak GamesRedbeak Games
442 浮世万千之前世今生 Jan 28, 2020 $10.99N/A (N/A)0 .. 20,0000%00:00 (00:00)飞天大胖喵飞天大胖喵
443 Utawarerumono: Mask of Deception Jan 23, 2020 $39.99N/A (N/A)20,000 .. 50,0000%00:00 (00:00)AQUAPLUSDMM GAMES, Shiravune
444 Utawarerumono: Mask of Truth Jan 23, 2020 $39.99N/A (N/A)0 .. 20,0000%00:00 (00:00)AQUAPLUSDMM GAMES, Shiravune
445 Der Geisterturm / The Ghost Tower Jan 23, 2020 $7.49N/A (N/A)0 .. 20,0000%00:00 (00:00)Graverobber FoundationGraverobber Foundation
446 Graywalkers: Purgatory Jan 15, 2020 $24.99N/A (N/A)0 .. 20,0000%00:00 (00:00)Dreamlords Digital Inc.Dreamlords Digital Inc.
447 Vestaria Saga I: War of the Scions Dec 27, 2019 $19.99N/A (N/A)20,000 .. 50,0000%00:00 (00:00)Vestaria ProjectDANGEN Entertainment, Gamera Game
448 Dinodrifters Dec 20, 2019 $9.99N/A (N/A)0 .. 20,0000%00:00 (00:00)Jake Hugh Reece WilsonTrywelyn Productions
449 Day of Dragons Dec 4, 2019 $19.99N/A (N/A)50,000 .. 100,0000%00:00 (00:00)Beawesome GamesBeawesome Games
450 Familia May 1, 2020 $4.99N/A (N/A)0 .. 20,0000%00:00 (00:00)Joseph AbrahamMaui Game Studio
451 Steam Marines 2 Nov 20, 2019 $24.99N/A (N/A)0 .. 20,0000%00:00 (00:00)Worthless BumsWorthless Bums
452 Time For Quest Nov 14, 2019 $7.99N/A (N/A)0 .. 20,0000%00:00 (00:00)Blacer Studio, Nikodem SwiderSource Byte Sp. z o.o., Blacer Studio
453 Albedon Wars Nov 7, 2019 $24.99N/A (N/A)0 .. 20,0000%00:00 (00:00)Firemill GamesFiremill Games
454 Time of the Moon Nov 1, 2019 $9.99N/A (N/A)0 .. 20,0000%00:00 (00:00)DawnfoxDawnfox
455 Strategic Mind: The Pacific Oct 25, 2019 $17.99N/A (N/A)20,000 .. 50,0000%00:00 (00:00)Starni GamesStarni Games
456 Lakeview Valley Oct 22, 2019 $14.99N/A (N/A)20,000 .. 50,00050%00:53 (00:26)Roope TamminenRoope Tamminen
457 Spaceland Sep 30, 2019 $14.99N/A (N/A)50,000 .. 100,0000%00:00 (00:00)Tortuga TeamTortuga Team
458 Balance Breakers Sep 27, 2019 $16.99N/A (N/A)0 .. 20,0000%00:00 (00:00)Gamestry LabGamestry Lab
459 Royal Merchant Sep 11, 2019 $9.99N/A (N/A)0 .. 20,0000%00:00 (00:00)BadimBadim
460 First Day Sep 1, 2019 $19.99N/A (N/A)0 .. 20,0000%00:00 (00:00)BadWolf GamesBadWolf Games
461 RogueVerse Aug 22, 2019 $9.99N/A (N/A)0 .. 20,0000%00:00 (00:00)FoumartGamesFoumartGames
462 Dungeon Scavenger Aug 21, 2019 $7.99N/A (N/A)50,000 .. 100,0000%00:00 (00:00)Vidama Software LLCVidama Software LLC
463 Tactics V: "Obsidian Brigade" Aug 8, 2019 $19.99N/A (N/A)0 .. 20,0000%00:00 (00:00)From Nothing Game StudiosFrom Nothing Game Studios
464 Dead Hand Jul 26, 2019 $19.99N/A (N/A)0 .. 20,0000%00:00 (00:00)One Man Army GamesOne Man Army Games
465 To Battle!: Hell's Crusade Jul 24, 2019 $8.99N/A (N/A)0 .. 20,0000%00:00 (00:00)Filthy Peasant GamesFilthy Peasant Games
466 Gloomhaven Jul 17, 2019 $24.99N/A (N/A)200,000 .. 500,00011.11%01:09 (00:23)Flaming Fowl StudiosAsmodee Digital
467 Golden Fall Jun 14, 2019 $1.99N/A (N/A)0 .. 20,0000%00:00 (00:00)Ofer RubinsteinOfer Rubinstein
468 GOD WARS The Complete Legend Jun 13, 2019 $29.99N/A (N/A)0 .. 20,0000%00:00 (00:00)KADOKAWA GAMES, LTD.KADOKAWA GAMES, LTD.
469 Age of Fear: The Undead King GOLD Jun 11, 2019 $24.99N/A (N/A)0 .. 20,0000%00:00 (00:00)Leslaw SliwkoAge of Fear
470 Cardlings Jun 5, 2019 $4.99N/A (N/A)0 .. 20,0000%00:00 (00:00)Clockwork ChilliClockwork Chilli
471 Between the Stars May 28, 2019 $29.99N/A (N/A)50,000 .. 100,0000%00:00 (00:00)Isolated GamesIsolated Games, Poysky Productions, WhisperGames
472 圣女战旗 Banner of the Maid May 27, 2019 $16.99N/A (N/A)200,000 .. 500,0000%00:00 (00:00)Azure Flame StudioCE-Asia
473 Idle Portal Guardian May 21, 2019 $2.99N/A (N/A)0 .. 20,0000%00:00 (00:00)ThejamiryuThejamiryu Inc.
474 Light Fairytale Episode 1 May 13, 2019 $9.99N/A (N/A)20,000 .. 50,0000%00:00 (00:00)neko.worksneko.works
475 UBOAT Apr 30, 2019 $29.99N/A (N/A)200,000 .. 500,00017.65%01:03 (01:03)Deep Water StudioPlayWay S.A.
476 Legend of Cina Mar 29, 2019 $6.99N/A (N/A)0 .. 20,0000%00:00 (00:00)YunkaiYunkai
477 Monads Feb 15, 2019 $4.99N/A (N/A)0 .. 20,0000%00:00 (00:00)Team MonadPsychoFlux Entertainment
478 Element Space Feb 14, 2019 $24.99N/A (N/A)0 .. 20,0000%00:00 (00:00)Sixth VowelInca Games
479 Euclidean Skies Feb 5, 2019 $4.99N/A (N/A)0 .. 20,0000%00:00 (00:00)Miro StrakaMiro Straka
480 Dragon Iris Feb 1, 2019 $1.99N/A (N/A)0 .. 20,0000%00:00 (00:00)Leonardo M A SilvaConsttelattions
481 Nomads of the Fallen Star Jan 30, 2019 $12.99N/A (N/A)0 .. 20,0000%00:00 (00:00)Huy PhanHuy Phan
482 Rogue Empire: Dungeon Crawler RPG Jan 25, 2019 $11.99N/A (N/A)0 .. 20,0000%00:00 (00:00)Portal EntertainmentPortal Entertainment
483 Shieldwall Chronicles: Swords of the North Dec 16, 2018 $14.99N/A (N/A)0 .. 20,0000%00:00 (00:00)Wave Light Games Inc.Wave Light Games Inc.
484 Ancient Frontier: Steel Shadows Dec 11, 2018 $14.99N/A (N/A)0 .. 20,0000%00:00 (00:00)Fair Weather Studios, LLCFair Weather Studios, LLC
485 Das Geisterschiff / The Ghost Ship Sep 19, 2018 $4.99N/A (N/A)20,000 .. 50,0000%00:00 (00:00)Graverobber FoundationGraverobber Foundation
486 Royal Booty Quest Nov 22, 2018 $19.99N/A (N/A)0 .. 20,0000%00:00 (00:00)BadimBadim
487 Disgaea 5 Complete Oct 22, 2018 $39.99N/A (N/A)200,000 .. 500,0000%00:00 (00:00)Nippon Ichi Software, Inc.NIS America, Inc.
488 Vigilantes Oct 3, 2018 $14.99N/A (N/A)0 .. 20,0000%00:00 (00:00)Timeslip SoftworksTimeslip Softworks
489 Depth of Extinction Sep 27, 2018 $3.74N/A (N/A)0 .. 20,0000%00:00 (00:00)HOF StudiosHOF Studios
490 SFD : Rogue TRPG Aug 17, 2018 $7.99N/A (N/A)0 .. 20,0000%00:00 (00:00)icefillicefill
491 Dustwind Aug 15, 2018 $24.99N/A (N/A)0 .. 20,0000%00:00 (00:00)Dustwind StudiosZ-Software GmbH, Dustwind Studios
492 Sword Legacy: Omen Aug 13, 2018 $17.99N/A (N/A)20,000 .. 50,0000%00:00 (00:00)Firecast Studio, Fableware Narrative DesignTeam17 Digital Ltd
493 Star Traders: Frontiers Jul 31, 2018 $14.99N/A (N/A)100,000 .. 200,00025%00:17 (00:05)Trese BrothersTrese Brothers
494 Throw Anything Jul 26, 2018 $16.99N/A (N/A)0 .. 20,0000%00:00 (00:00)Visual LightVisual Light
495 Ganbare! Super Strikers Jul 26, 2018 $9.99N/A (N/A)0 .. 20,0000%00:00 (00:00)reserese
Overview

Tactical RPG

Games with this tag: 495
Average userscore: N/A%
Average metascore: 72.87%
Average playtime: 03:05
Total copies owned: 71,809,000
Average price: $14.14
Help

Owners: Estimated number of people owning this game. The number might be way too small for new releases and sometimes way too big for games that had free weekend event recently. Read more on About page.

Playtime: Average hours played in total per person that have actually launched this game since March 2009. This time is calculated for the whole lifetime, not for the particular year.

Average score: Average users and metacritic score for all games with this score assigned.

Average playtime: Average lifetime playtime for all games where this data is available.

Games in this genre: Self-explaining - number of games with this tag. Only inculdes games with sales data available.

Total copies owned: Refers to total copies of games with this tag acquired by users for the lifetime. Includes copies sold, downloaded for free and given out.

This number might be too small for recently released games or too big for games that had a free weekend in the last couple of months.

Graphs

Login required.

Please register or log in to see this information.

Login required.

Please register or log in to see this information.